Time;durP1;ratioP1;P1;durP2;ratioP2;P2;SDS_P1;SDS_P2;PMS_P1;PMS_P2;Temp;Humidity;BMP_temperature;BMP_pressure;BME280_temperature;BME280_humidity;BME280_pressure;Samples;Min_cycle;Max_cycle;Signal;HPM_P1;HPM_P2
2023/06/12 00:00:40;;;;;;;23.85;16.17;;;25.30;85.10;;;;;;7381069;19;20426;-76
2023/06/12 00:03:09;;;;;;;22.02;16.90;;;25.30;85.10;;;;;;7382124;19;20010;-76
2023/06/12 00:05:43;;;;;;;26.67;17.52;;;25.30;85.10;;;;;;7404237;19;20015;-76
2023/06/12 00:08:13;;;;;;;26.75;18.60;;;25.30;85.10;;;;;;7381400;19;20363;-76
2023/06/12 00:10:43;;;;;;;30.45;18.30;;;25.20;84.90;;;;;;7382512;19;20022;-76
2023/06/12 00:13:12;;;;;;;25.60;17.83;;;25.20;85.00;;;;;;7379707;19;20023;-76
2023/06/12 00:15:41;;;;;;;26.30;17.67;;;25.10;85.00;;;;;;7379835;19;20007;-76
2023/06/12 00:18:12;;;;;;;24.58;17.50;;;25.00;85.10;;;;;;7380609;19;20019;-76
2023/06/12 00:20:44;;;;;;;24.50;15.50;;;25.00;85.20;;;;;;7406558;19;20014;-76
2023/06/12 00:23:13;;;;;;;22.00;16.10;;;25.00;85.80;;;;;;7398372;19;20101;-76
2023/06/12 00:25:41;;;;;;;22.42;14.93;;;24.90;85.80;;;;;;7405240;19;20015;-76
2023/06/12 00:28:12;;;;;;;27.27;14.75;;;25.00;85.90;;;;;;7390149;19;20007;-76
2023/06/12 00:30:42;;;;;;;22.67;15.85;;;25.00;86.10;;;;;;7385094;19;20010;-76
2023/06/12 00:33:11;;;;;;;22.95;14.27;;;25.10;86.30;;;;;;7384433;19;20003;-76
2023/06/12 00:35:40;;;;;;;19.65;14.27;;;25.10;86.00;;;;;;7409281;19;20023;-76
2023/06/12 00:38:11;;;;;;;21.73;14.18;;;25.10;86.10;;;;;;7383339;19;20112;-76
2023/06/12 00:40:40;;;;;;;19.55;13.73;;;25.10;86.30;;;;;;7385771;19;20005;-76
2023/06/12 00:43:09;;;;;;;21.75;14.25;;;25.20;85.80;;;;;;7386010;19;20006;-76
2023/06/12 00:45:38;;;;;;;24.80;13.88;;;25.20;86.60;;;;;;7384521;19;20015;-76
2023/06/12 00:48:08;;;;;;;19.25;14.93;;;25.20;85.80;;;;;;7383292;19;20031;-76
2023/06/12 00:50:39;;;;;;;24.50;15.20;;;25.10;85.40;;;;;;7407435;19;20010;-76
2023/06/12 00:53:11;;;;;;;20.58;13.63;;;25.10;85.10;;;;;;7385312;19;19999;-76
2023/06/12 00:55:40;;;;;;;25.52;13.95;;;25.10;85.80;;;;;;7386176;19;20091;-76
2023/06/12 00:58:09;;;;;;;22.38;13.98;;;25.10;86.00;;;;;;7384954;19;20026;-76
2023/06/12 01:00:39;;;;;;;19.20;13.05;;;25.10;86.00;;;;;;7383757;19;20074;-76
2023/06/12 01:03:10;;;;;;;22.55;13.90;;;25.10;86.10;;;;;;7384970;19;20372;-76
2023/06/12 01:05:40;;;;;;;;;;;25.10;86.10;;;;;;7407780;19;20006;-76
2023/06/12 01:08:31;;;;;;;17.83;12.30;;;25.10;86.40;;;;;;7382572;19;19915;-75
2023/06/12 01:11:03;;;;;;;17.17;12.82;;;25.10;86.10;;;;;;7386685;19;20042;-76
2023/06/12 01:13:33;;;;;;;23.40;12.95;;;25.20;86.40;;;;;;7388992;19;20003;-76
2023/06/12 01:16:02;;;;;;;22.25;12.90;;;25.20;86.20;;;;;;7389064;19;20006;-76
2023/06/12 01:18:32;;;;;;;18.17;13.02;;;25.20;86.20;;;;;;7385873;19;20077;-76
2023/06/12 01:21:01;;;;;;;20.63;14.27;;;25.20;86.40;;;;;;7419767;19;20010;-76
2023/06/12 01:23:58;;;;;;;22.13;14.38;;;25.20;86.20;;;;;;7412482;19;20019;-76
2023/06/12 01:26:46;;;;;;;26.98;13.82;;;25.20;86.40;;;;;;7388796;19;20011;-76
2023/06/12 01:29:56;;;;;;;18.17;12.25;;;25.20;86.20;;;;;;7384940;19;20019;-76
2023/06/12 01:32:29;;;;;;;17.25;12.63;;;25.10;86.40;;;;;;7385678;19;20034;-76
2023/06/12 01:35:03;;;;;;;19.88;12.63;;;25.10;86.40;;;;;;7381875;19;20010;-76
2023/06/12 01:37:35;;;;;;;21.95;12.13;;;25.10;86.30;;;;;;7381181;19;20014;-76
2023/06/12 01:40:08;;;;;;;19.58;13.63;;;25.10;86.10;;;;;;7382051;19;20150;-76
2023/06/12 01:42:37;;;;;;;20.17;13.85;;;25.10;85.90;;;;;;7384956;19;20406;-76
2023/06/12 01:45:07;;;;;;;32.42;13.82;;;25.10;85.50;;;;;;7382138;19;20042;-75
2023/06/12 01:47:38;;;;;;;20.23;13.20;;;25.00;85.60;;;;;;7401791;19;20024;-75
2023/06/12 01:50:12;;;;;;;21.30;12.95;;;24.90;86.00;;;;;;7380727;19;20003;-75
2023/06/12 01:52:45;;;;;;;16.95;12.05;;;24.90;85.90;;;;;;7380611;19;20319;-75
2023/06/12 01:55:14;;;;;;;22.55;13.32;;;24.90;86.30;;;;;;7383349;19;20013;-76
2023/06/12 01:57:44;;;;;;;19.27;12.50;;;24.90;86.60;;;;;;7380741;19;20062;-76
2023/06/12 02:00:14;;;;;;;21.77;12.80;;;24.80;86.60;;;;;;7380797;19;20011;-76
2023/06/12 02:02:45;;;;;;;18.37;12.40;;;24.80;86.70;;;;;;7402688;19;20056;-74
2023/06/12 02:05:14;;;;;;;;;;;24.80;86.70;;;;;;7380964;19;20014;-76
2023/06/12 02:07:43;;;;;;;18.75;12.48;;;24.90;86.70;;;;;;7380201;19;20171;-76
2023/06/12 02:10:12;;;;;;;22.33;12.88;;;24.90;86.50;;;;;;7383217;19;20006;-75
2023/06/12 02:12:41;;;;;;;20.08;12.63;;;24.90;86.80;;;;;;7382690;19;20017;-74
2023/06/12 02:15:12;;;;;;;22.55;13.77;;;24.90;87.00;;;;;;7383096;19;20019;-74
2023/06/12 02:17:42;;;;;;;18.27;13.63;;;24.90;86.70;;;;;;7405160;19;20026;-75
2023/06/12 02:20:14;;;;;;;22.17;12.75;;;24.80;86.70;;;;;;7382957;19;19999;-74
2023/06/12 02:22:43;;;;;;;29.65;13.18;;;24.80;86.90;;;;;;7382572;19;20018;-76
2023/06/12 02:25:12;;;;;;;19.02;12.35;;;24.90;86.80;;;;;;7382659;19;20324;-76
2023/06/12 02:27:40;;;;;;;20.50;13.68;;;24.80;86.40;;;;;;7382559;19;20010;-76
2023/06/12 02:30:11;;;;;;;19.65;12.98;;;24.70;86.30;;;;;;7380533;19;20014;-76
2023/06/12 02:32:39;;;;;;;21.25;12.98;;;24.70;86.70;;;;;;7407008;19;20003;-75
2023/06/12 02:35:10;;;;;;;19.67;13.32;;;24.60;87.10;;;;;;7398407;19;20016;-74
2023/06/12 02:37:41;;;;;;;28.75;12.82;;;24.60;87.10;;;;;;7393364;19;20402;-75
2023/06/12 02:40:10;;;;;;;;;;;24.60;87.40;;;;;;7382980;19;20328;-74
2023/06/12 02:42:39;;;;;;;17.55;11.27;;;24.70;87.50;;;;;;7382650;19;19919;-74
2023/06/12 02:45:09;;;;;;;18.25;12.38;;;24.70;87.20;;;;;;7382177;19;20228;-75
2023/06/12 02:47:38;;;;;;;18.97;12.13;;;24.70;87.40;;;;;;7403393;19;20031;-75
2023/06/12 02:50:08;;;;;;;23.10;12.32;;;24.70;87.50;;;;;;7381453;19;20074;-75
2023/06/12 02:52:36;;;;;;;18.98;14.32;;;24.70;87.20;;;;;;7381744;19;20006;-74
2023/06/12 02:55:09;;;;;;;21.73;13.80;;;24.70;87.10;;;;;;7381846;19;20010;-75
2023/06/12 02:57:38;;;;;;;19.00;12.90;;;24.60;86.90;;;;;;7382227;19;20002;-74
2023/06/12 03:00:08;;;;;;;24.33;13.00;;;24.60;87.30;;;;;;7381426;19;20007;-75
2023/06/12 03:02:42;;;;;;;23.37;12.77;;;24.50;87.30;;;;;;7402600;19;20015;-75
2023/06/12 03:05:14;;;;;;;23.92;13.68;;;24.50;87.50;;;;;;7381094;19;20023;-75
2023/06/12 03:07:44;;;;;;;18.55;14.02;;;24.40;87.50;;;;;;7380318;19;19999;-74
2023/06/12 03:10:15;;;;;;;20.33;13.30;;;24.30;87.60;;;;;;7380940;19;20014;-75
2023/06/12 03:12:45;;;;;;;19.23;12.95;;;24.20;87.90;;;;;;7381030;19;20007;-75
2023/06/12 03:15:14;;;;;;;20.35;13.27;;;24.10;88.10;;;;;;7379471;19;20031;-76
2023/06/12 03:17:46;;;;;;;22.75;12.80;;;24.20;89.20;;;;;;7405415;19;20006;-75
2023/06/12 03:20:17;;;;;;;18.40;13.85;;;24.20;87.90;;;;;;7388616;19;19999;-75
2023/06/12 03:22:46;;;;;;;21.55;13.98;;;24.10;87.60;;;;;;7396819;19;20028;-75
2023/06/12 03:25:18;;;;;;;21.48;13.27;;;24.10;87.60;;;;;;7400100;19;19999;-74
2023/06/12 03:27:49;;;;;;;20.65;12.88;;;24.00;87.80;;;;;;7387487;19;20054;-75
2023/06/12 03:30:18;;;;;;;19.48;13.93;;;24.10;88.00;;;;;;7381732;19;20003;-75
2023/06/12 03:32:47;;;;;;;21.40;13.68;;;24.00;87.80;;;;;;7403953;19;20231;-75
2023/06/12 03:35:16;;;;;;;24.20;14.10;;;23.90;87.80;;;;;;7384893;19;20020;-75
2023/06/12 03:37:45;;;;;;;24.58;13.43;;;23.80;87.80;;;;;;7385679;19;20086;-75
2023/06/12 03:40:18;;;;;;;25.02;13.88;;;23.60;88.80;;;;;;7395516;19;20026;-75
2023/06/12 03:42:47;;;;;;;28.27;13.50;;;23.50;88.70;;;;;;7384835;19;20109;-75
2023/06/12 03:45:16;;;;;;;20.20;13.85;;;23.50;88.60;;;;;;7380541;19;20091;-75
2023/06/12 03:47:45;;;;;;;30.38;14.20;;;23.50;88.60;;;;;;7402801;19;20020;-75
2023/06/12 03:50:13;;;;;;;28.25;13.73;;;23.50;88.60;;;;;;7380858;19;20019;-75
2023/06/12 03:52:42;;;;;;;21.60;13.15;;;23.40;88.70;;;;;;7381942;19;20264;-75
2023/06/12 03:55:12;;;;;;;21.52;14.23;;;23.40;88.60;;;;;;7389214;19;20010;-75
2023/06/12 03:57:43;;;;;;;21.67;13.57;;;23.50;88.40;;;;;;7388617;19;20591;-75
2023/06/12 04:00:12;;;;;;;;;;;23.40;88.20;;;;;;7389426;19;20011;-75
2023/06/12 04:02:42;;;;;;;20.50;11.93;;;23.50;88.70;;;;;;7409495;19;19918;-75
2023/06/12 04:05:11;;;;;;;19.85;12.98;;;23.50;88.30;;;;;;7386625;19;20017;-75
2023/06/12 04:07:39;;;;;;;21.35;12.82;;;23.50;88.20;;;;;;7386008;19;20003;-75
2023/06/12 04:10:10;;;;;;;26.13;12.57;;;23.60;88.00;;;;;;7384217;19;20007;-75
2023/06/12 04:12:38;;;;;;;28.45;14.13;;;23.60;88.10;;;;;;7387041;19;20009;-75
2023/06/12 04:15:11;;;;;;;26.63;13.60;;;23.60;87.90;;;;;;7388932;19;20062;-75
2023/06/12 04:17:39;;;;;;;21.67;14.43;;;23.60;87.80;;;;;;7405240;19;20115;-76
2023/06/12 04:20:11;;;;;;;26.60;13.80;;;23.60;87.70;;;;;;7386067;19;20012;-76
2023/06/12 04:22:41;;;;;;;26.48;14.05;;;23.60;88.00;;;;;;7385999;19;20222;-76
2023/06/12 04:25:10;;;;;;;21.23;13.68;;;23.50;88.10;;;;;;7385068;19;20002;-75
2023/06/12 04:27:42;;;;;;;27.30;14.23;;;23.40;88.10;;;;;;7388672;19;20011;-76
2023/06/12 04:30:15;;;;;;;20.30;13.27;;;23.40;88.30;;;;;;7389731;19;20015;-76
2023/06/12 04:32:46;;;;;;;21.08;13.68;;;23.30;88.20;;;;;;7410586;19;20003;-76
2023/06/12 04:35:16;;;;;;;26.00;13.82;;;23.30;88.20;;;;;;7387990;19;20062;-76
2023/06/12 04:37:48;;;;;;;23.35;14.10;;;23.30;88.20;;;;;;7386590;19;20017;-76
2023/06/12 04:40:17;;;;;;;26.73;12.75;;;23.30;88.50;;;;;;7388302;19;20390;-75
2023/06/12 04:42:47;;;;;;;21.50;12.07;;;23.20;88.40;;;;;;7385991;19;20011;-74
2023/06/12 04:45:18;;;;;;;19.70;13.45;;;23.30;88.60;;;;;;7387241;19;20023;-75
2023/06/12 04:47:46;;;;;;;;;;;23.30;88.50;;;;;;7412173;19;20007;-74
2023/06/12 04:50:15;;;;;;;21.50;12.93;;;23.30;88.50;;;;;;7404546;19;19919;-75
2023/06/12 04:52:44;;;;;;;21.02;12.65;;;23.30;88.20;;;;;;7394891;19;20007;-74
2023/06/12 04:55:16;;;;;;;22.52;13.15;;;23.30;88.30;;;;;;7385181;19;20023;-75
2023/06/12 04:57:47;;;;;;;24.20;13.25;;;23.30;88.30;;;;;;7386016;19;20006;-75
2023/06/12 05:00:19;;;;;;;19.20;11.95;;;23.30;88.20;;;;;;7386347;19;20017;-74
2023/06/12 05:02:49;;;;;;;23.63;11.70;;;23.30;88.40;;;;;;7406873;19;20277;-74
2023/06/12 05:05:19;;;;;;;16.05;11.82;;;23.40;88.20;;;;;;7384336;19;20027;-75
2023/06/12 05:07:48;;;;;;;22.17;12.05;;;23.50;88.10;;;;;;7386602;19;19999;-74
2023/06/12 05:10:17;;;;;;;18.80;11.50;;;23.50;87.50;;;;;;7385641;19;20031;-75
2023/06/12 05:12:48;;;;;;;21.73;11.00;;;23.50;87.60;;;;;;7384740;19;20027;-76
2023/06/12 05:15:19;;;;;;;16.83;11.57;;;23.50;87.30;;;;;;7386165;19;20007;-76
2023/06/12 05:17:47;;;;;;;;;;;23.50;87.60;;;;;;7407614;19;20011;-76
2023/06/12 05:20:16;;;;;;;23.48;12.25;;;23.50;87.40;;;;;;7384561;19;19910;-76
2023/06/12 05:22:45;;;;;;;17.15;11.25;;;23.50;87.40;;;;;;7385308;19;20023;-76
2023/06/12 05:25:15;;;;;;;22.63;12.13;;;23.50;87.40;;;;;;7385577;19;20019;-76
2023/06/12 05:27:43;;;;;;;22.90;11.00;;;23.50;87.30;;;;;;7387073;19;20010;-76
2023/06/12 05:30:13;;;;;;;20.63;10.70;;;23.40;87.50;;;;;;7385958;19;20019;-76
2023/06/12 05:32:45;;;;;;;21.58;12.07;;;23.40;87.50;;;;;;7408940;19;20020;-75
2023/06/12 05:35:14;;;;;;;23.23;11.07;;;23.30;87.50;;;;;;7387047;19;20013;-75
2023/06/12 05:37:42;;;;;;;18.15;11.30;;;23.30;87.70;;;;;;7386226;19;20032;-75
2023/06/12 05:40:13;;;;;;;19.67;11.57;;;23.30;88.20;;;;;;7385924;19;20002;-76
2023/06/12 05:42:41;;;;;;;17.98;10.68;;;23.20;88.20;;;;;;7386783;19;20011;-76
2023/06/12 05:45:11;;;;;;;22.15;11.13;;;23.20;88.20;;;;;;7390000;19;20011;-76
2023/06/12 05:47:40;;;;;;;19.80;11.38;;;23.20;88.40;;;;;;7407164;19;20120;-76
2023/06/12 05:50:12;;;;;;;15.98;10.38;;;23.20;88.10;;;;;;7387059;19;20019;-76
2023/06/12 05:52:44;;;;;;;17.83;11.48;;;23.30;88.10;;;;;;7387173;19;20074;-76
2023/06/12 05:55:13;;;;;;;22.83;10.05;;;23.20;87.90;;;;;;7385422;19;20010;-76
2023/06/12 05:57:41;;;;;;;19.70;9.82;;;23.30;88.30;;;;;;7385406;19;20269;-76
2023/06/12 06:00:13;;;;;;;20.45;10.30;;;23.40;88.20;;;;;;7385202;19;20007;-76
2023/06/12 06:02:42;;;;;;;14.52;8.48;;;23.40;88.60;;;;;;7406718;19;20013;-76
2023/06/12 06:05:14;;;;;;;10.68;8.20;;;23.50;88.30;;;;;;7385845;19;20042;-75
2023/06/12 06:07:42;;;;;;;13.75;7.63;;;23.60;87.30;;;;;;7395465;19;20024;-76
2023/06/12 06:10:13;;;;;;;17.73;8.93;;;23.70;87.20;;;;;;7384332;19;20003;-76
2023/06/12 06:12:41;;;;;;;12.18;7.90;;;23.80;87.20;;;;;;7384029;19;20252;-76
2023/06/12 06:15:11;;;;;;;19.30;8.85;;;23.90;86.90;;;;;;7382864;19;20019;-74
2023/06/12 06:17:40;;;;;;;13.60;7.22;;;24.00;86.10;;;;;;7404481;19;20035;-74
2023/06/12 06:20:13;;;;;;;13.50;7.70;;;24.00;85.60;;;;;;7382680;19;20011;-75
2023/06/12 06:22:43;;;;;;;13.18;8.00;;;24.00;85.50;;;;;;7383307;19;20009;-76
2023/06/12 06:25:13;;;;;;;17.42;7.82;;;24.00;85.30;;;;;;7383516;19;20080;-75
2023/06/12 06:27:41;;;;;;;14.90;7.65;;;23.90;85.20;;;;;;7383622;19;20021;-75
2023/06/12 06:30:11;;;;;;;11.30;7.40;;;23.90;85.60;;;;;;7382644;19;20007;-75
2023/06/12 06:32:40;;;;;;;13.23;7.40;;;23.90;85.70;;;;;;7405459;19;20062;-75
2023/06/12 06:35:10;;;;;;;12.77;7.47;;;24.00;85.70;;;;;;7382553;19;20007;-75
2023/06/12 06:37:41;;;;;;;11.75;7.13;;;24.00;85.70;;;;;;7382664;19;20010;-76
2023/06/12 06:40:11;;;;;;;;;;;24.00;85.20;;;;;;7386344;19;20013;-75
2023/06/12 06:42:40;;;;;;;14.05;7.32;;;24.00;85.20;;;;;;7384859;19;19959;-75
2023/06/12 06:45:10;;;;;;;10.75;6.63;;;24.00;85.20;;;;;;7383992;19;20007;-75
2023/06/12 06:47:39;;;;;;;11.43;6.80;;;23.90;84.90;;;;;;7405635;19;19999;-75
2023/06/12 06:50:09;;;;;;;11.50;7.00;;;23.80;85.10;;;;;;7388317;19;20011;-74
2023/06/12 06:52:37;;;;;;;14.10;6.82;;;23.90;85.50;;;;;;7390227;19;20007;-75
2023/06/12 06:55:09;;;;;;;8.20;6.38;;;23.90;85.80;;;;;;7405935;19;20006;-75
2023/06/12 06:57:38;;;;;;;10.40;6.20;;;23.90;85.70;;;;;;7401632;19;20047;-74
2023/06/12 07:00:09;;;;;;;12.15;6.38;;;24.00;85.60;;;;;;7385993;19;20074;-75
2023/06/12 07:02:40;;;;;;;10.13;6.68;;;24.10;85.50;;;;;;7403754;19;20015;-75
2023/06/12 07:05:10;;;;;;;10.52;7.22;;;24.00;85.00;;;;;;7389554;19;20011;-74
2023/06/12 07:07:39;;;;;;;10.43;6.70;;;24.00;85.00;;;;;;7397273;19;20013;-75
2023/06/12 07:10:11;;;;;;;9.23;7.15;;;24.00;85.20;;;;;;7383000;19;20030;-75
2023/06/12 07:12:40;;;;;;;11.32;7.13;;;24.10;86.10;;;;;;7381456;19;20289;-75
2023/06/12 07:15:10;;;;;;;12.00;6.80;;;24.00;85.30;;;;;;7379977;19;20354;-75
2023/06/12 07:17:39;;;;;;;15.15;7.72;;;24.20;85.50;;;;;;7401382;19;20014;-75
2023/06/12 07:20:10;;;;;;;8.85;6.75;;;24.10;85.00;;;;;;7380483;19;20031;-74
2023/06/12 07:22:38;;;;;;;10.50;7.40;;;24.20;85.30;;;;;;7380923;19;20362;-74
2023/06/12 07:25:10;;;;;;;14.25;7.07;;;24.40;85.50;;;;;;7380316;19;20003;-75
2023/06/12 07:27:39;;;;;;;11.85;6.63;;;24.30;84.70;;;;;;7380949;19;20068;-74
2023/06/12 07:30:09;;;;;;;11.50;6.78;;;24.40;84.70;;;;;;7379580;19;20092;-74
2023/06/12 07:32:40;;;;;;;10.60;7.10;;;24.50;84.70;;;;;;7400664;19;20002;-75
2023/06/12 07:35:10;;;;;;;12.48;6.88;;;24.60;85.30;;;;;;7380096;19;20235;-75
2023/06/12 07:37:39;;;;;;;10.27;7.18;;;24.60;84.80;;;;;;7379082;19;20014;-74
2023/06/12 07:40:12;;;;;;;12.88;7.38;;;24.40;84.50;;;;;;7380167;19;20002;-75
2023/06/12 07:42:44;;;;;;;14.88;6.82;;;24.60;84.80;;;;;;7380193;19;20082;-75
2023/06/12 07:45:12;;;;;;;15.20;7.47;;;24.70;84.80;;;;;;7381995;19;20009;-74
2023/06/12 07:47:42;;;;;;;19.00;6.90;;;24.90;84.40;;;;;;7405827;19;20015;-75
2023/06/12 07:50:12;;;;;;;14.48;7.63;;;24.90;83.80;;;;;;7381875;19;19999;-75
2023/06/12 07:52:41;;;;;;;9.27;7.07;;;24.90;83.80;;;;;;7379742;19;20687;-75
2023/06/12 07:55:14;;;;;;;14.77;6.47;;;25.10;83.70;;;;;;7381024;19;20219;-75
2023/06/12 07:57:47;;;;;;;10.05;7.03;;;25.10;84.10;;;;;;7380531;19;20067;-75
2023/06/12 08:00:17;;;;;;;17.48;7.50;;;25.10;83.30;;;;;;7382057;19;20018;-75
2023/06/12 08:02:54;;;;;;;11.48;7.28;;;25.20;83.40;;;;;;7401215;19;20019;-75
2023/06/12 08:05:23;;;;;;;12.43;7.60;;;25.20;82.80;;;;;;7380888;19;20003;-75
2023/06/12 08:07:52;;;;;;;16.23;7.93;;;25.20;82.70;;;;;;7380800;19;20074;-75
2023/06/12 08:10:23;;;;;;;12.75;7.38;;;25.00;82.50;;;;;;7379629;19;20006;-75
2023/06/12 08:12:52;;;;;;;12.23;7.40;;;24.90;82.50;;;;;;7380415;19;20007;-75
2023/06/12 08:15:21;;;;;;;15.55;7.82;;;24.70;84.40;;;;;;7379604;19;20404;-75
2023/06/12 08:17:51;;;;;;;13.05;7.25;;;24.60;83.50;;;;;;7401104;19;20003;-75
2023/06/12 08:20:20;;;;;;;14.13;7.55;;;24.60;83.50;;;;;;7379525;19;20002;-75
2023/06/12 08:22:48;;;;;;;12.15;7.28;;;24.40;83.70;;;;;;7378591;19;20023;-75
2023/06/12 08:25:17;;;;;;;13.43;8.18;;;24.50;84.10;;;;;;7378891;19;20362;-75
2023/06/12 08:27:48;;;;;;;11.65;7.43;;;24.50;83.90;;;;;;7379610;19;19999;-75
2023/06/12 08:30:17;;;;;;;;;;;24.60;84.10;;;;;;7379235;19;20011;-75
2023/06/12 08:32:46;;;;;;;11.82;7.97;;;24.50;83.40;;;;;;7401844;19;19967;-75
2023/06/12 08:35:14;;;;;;;11.85;7.80;;;24.50;84.50;;;;;;7379704;19;20019;-75
2023/06/12 08:37:43;;;;;;;12.38;7.28;;;24.60;84.20;;;;;;7394377;19;20014;-74
2023/06/12 08:40:13;;;;;;;13.63;7.78;;;24.70;84.20;;;;;;7387511;19;20378;-75
2023/06/12 08:42:51;;;;;;;13.25;7.15;;;24.80;84.00;;;;;;7385236;19;20006;-75
2023/06/12 08:45:22;;;;;;;16.17;8.60;;;24.80;83.60;;;;;;7386633;19;20006;-75
2023/06/12 08:47:51;;;;;;;9.98;7.15;;;24.80;83.60;;;;;;7408030;19;20013;-75
2023/06/12 08:50:20;;;;;;;11.18;7.38;;;24.90;83.50;;;;;;7386179;19;20010;-75
2023/06/12 08:52:50;;;;;;;15.18;7.20;;;25.00;83.30;;;;;;7388838;19;20066;-76
2023/06/12 08:55:19;;;;;;;11.30;8.10;;;25.10;82.90;;;;;;7387832;19;20002;-75
2023/06/12 08:57:51;;;;;;;10.90;7.90;;;25.10;81.60;;;;;;7387408;19;20023;-75
2023/06/12 09:00:22;;;;;;;12.02;7.60;;;25.10;82.60;;;;;;7385937;19;20010;-75
2023/06/12 09:02:56;;;;;;;11.85;7.47;;;25.20;82.40;;;;;;7407706;19;20003;-75
2023/06/12 09:05:29;;;;;;;12.13;7.80;;;25.20;82.30;;;;;;7385471;19;20066;-76
2023/06/12 09:08:00;;;;;;;12.48;8.38;;;25.30;82.30;;;;;;7387755;19;20003;-76
2023/06/12 09:10:29;;;;;;;16.77;8.48;;;25.40;82.30;;;;;;7388923;19;20010;-75
2023/06/12 09:13:02;;;;;;;12.43;7.63;;;25.50;81.90;;;;;;7388731;19;20007;-75
2023/06/12 09:15:32;;;;;;;13.43;8.38;;;25.40;81.90;;;;;;7383600;19;20084;-75
2023/06/12 09:18:00;;;;;;;15.52;9.07;;;25.50;82.40;;;;;;7406965;19;20250;-75
2023/06/12 09:20:33;;;;;;;16.67;9.77;;;25.60;82.50;;;;;;7385875;19;19999;-75
2023/06/12 09:23:04;;;;;;;15.13;8.98;;;25.50;82.20;;;;;;7403891;19;20007;-75
2023/06/12 09:25:37;;;;;;;16.13;10.68;;;25.50;81.60;;;;;;7393091;19;20053;-75
2023/06/12 09:28:10;;;;;;;17.35;9.60;;;25.50;80.90;;;;;;7387159;19;20006;-75
2023/06/12 09:30:44;;;;;;;17.73;9.98;;;25.50;81.20;;;;;;7383526;19;20262;-75
2023/06/12 09:33:13;;;;;;;18.52;9.75;;;25.60;81.20;;;;;;7382597;19;20007;-75
2023/06/12 09:35:54;;;;;;;14.07;9.38;;;25.60;80.90;;;;;;7403186;19;20007;-75
2023/06/12 09:38:30;;;;;;;17.70;9.43;;;25.70;81.40;;;;;;7385366;19;20011;-75
2023/06/12 09:41:00;;;;;;;13.85;9.70;;;25.70;80.90;;;;;;7386775;19;20006;-75
2023/06/12 09:43:31;;;;;;;19.23;10.32;;;25.80;80.60;;;;;;7384679;19;20003;-75
2023/06/12 09:46:01;;;;;;;18.23;10.43;;;25.90;81.20;;;;;;7384761;19;20027;-75
2023/06/12 09:48:35;;;;;;;20.08;10.30;;;26.00;81.80;;;;;;7384878;19;20006;-75
2023/06/12 09:51:08;;;;;;;20.88;10.07;;;26.00;80.40;;;;;;7378876;19;20011;-75
2023/06/12 09:53:39;;;;;;;19.15;10.18;;;26.10;80.00;;;;;;7405867;19;20362;-75
2023/06/12 09:56:09;;;;;;;14.57;9.10;;;26.10;81.10;;;;;;7385242;19;20007;-75
2023/06/12 09:58:47;;;;;;;13.48;9.52;;;26.10;80.50;;;;;;7386795;19;20026;-75
2023/06/12 10:01:19;;;;;;;17.08;9.55;;;26.20;80.90;;;;;;7387107;19;20050;-75
2023/06/12 10:03:53;;;;;;;17.40;10.15;;;26.20;80.80;;;;;;7383449;19;20058;-76
2023/06/12 10:06:24;;;;;;;16.70;9.48;;;26.20;80.50;;;;;;7384408;19;20020;-76
2023/06/12 10:08:54;;;;;;;21.33;9.48;;;26.20;80.80;;;;;;7405178;19;20358;-75
2023/06/12 10:11:24;;;;;;;17.90;9.73;;;26.30;81.20;;;;;;7381716;19;20015;-75
2023/06/12 10:13:56;;;;;;;18.98;9.25;;;26.30;81.50;;;;;;7384735;19;20006;-75
2023/06/12 10:16:26;;;;;;;19.10;10.85;;;26.30;81.50;;;;;;7385522;19;20002;-75
2023/06/12 10:18:56;;;;;;;24.00;11.55;;;26.40;81.10;;;;;;7385295;19;20366;-75
2023/06/12 10:21:25;;;;;;;21.02;11.32;;;26.40;80.50;;;;;;7383617;19;20285;-75
2023/06/12 10:23:55;;;;;;;18.45;11.02;;;26.60;80.70;;;;;;7404999;19;20010;-75
2023/06/12 10:26:25;;;;;;;20.38;12.50;;;26.70;80.60;;;;;;7382544;19;20377;-76
2023/06/12 10:28:57;;;;;;;16.95;11.80;;;26.90;80.10;;;;;;7397506;19;20010;-75
2023/06/12 10:31:29;;;;;;;23.90;12.90;;;27.00;79.50;;;;;;7399893;19;20007;-75
2023/06/12 10:34:05;;;;;;;19.25;12.52;;;27.10;78.70;;;;;;7384190;19;20358;-76
2023/06/12 10:36:44;;;;;;;20.70;12.43;;;27.10;78.00;;;;;;7383308;19;20011;-75
2023/06/12 10:39:19;;;;;;;18.15;10.85;;;27.10;78.30;;;;;;7383457;19;20047;-76
2023/06/12 10:41:59;;;;;;;18.15;11.90;;;27.10;78.80;;;;;;7402763;19;20018;-75
2023/06/12 10:44:41;;;;;;;22.25;13.40;;;27.20;78.50;;;;;;7382090;19;20219;-75
2023/06/12 10:47:21;;;;;;;25.75;12.48;;;27.40;77.90;;;;;;7381797;19;19998;-75
2023/06/12 10:50:00;;;;;;;17.05;11.25;;;27.40;77.60;;;;;;7381995;19;20010;-75
2023/06/12 10:52:32;;;;;;;21.30;13.73;;;27.50;77.70;;;;;;7381790;19;20018;-76
2023/06/12 10:55:18;;;;;;;21.13;13.02;;;27.60;78.00;;;;;;7382324;19;20013;-75
2023/06/12 10:57:51;;;;;;;25.30;12.90;;;27.60;77.50;;;;;;7384487;19;20026;-75
2023/06/12 11:00:24;;;;;;;25.67;14.90;;;27.50;77.20;;;;;;7386751;19;20394;-76
2023/06/12 11:03:01;;;;;;;18.83;13.15;;;27.60;77.20;;;;;;7421206;19;20010;-75
2023/06/12 11:05:30;;;;;;;22.10;13.82;;;27.70;77.50;;;;;;7385311;19;20032;-75
2023/06/12 11:08:00;;;;;;;21.92;14.75;;;27.90;76.20;;;;;;7384829;19;20015;-76
2023/06/12 11:13:21;;;;;;;21.48;13.35;;;27.90;76.10;;;;;;7384258;19;20002;-81
2023/06/12 11:16:15;;;;;;;24.73;13.85;;;27.90;76.20;;;;;;7389251;19;20023;-82
2023/06/12 11:18:45;;;;;;;29.77;13.60;;;28.00;75.20;;;;;;7406983;19;20219;-81
2023/06/12 11:24:25;;;;;;;17.10;11.77;;;27.90;74.90;;;;;;7389789;19;20243;-80
2023/06/12 11:27:02;;;;;;;17.77;12.40;;;27.90;75.60;;;;;;7404176;19;20011;-79
2023/06/12 11:29:37;;;;;;;23.23;13.43;;;27.90;76.20;;;;;;7384727;19;20273;-79
2023/06/12 11:32:11;;;;;;;21.02;12.88;;;28.00;75.20;;;;;;7388257;19;20011;-79
2023/06/12 11:34:56;;;;;;;23.13;12.80;;;28.00;76.20;;;;;;7404765;19;20002;-80
2023/06/12 11:37:36;;;;;;;19.33;11.88;;;28.00;76.40;;;;;;7387847;19;20022;-81
2023/06/12 11:40:21;;;;;;;18.13;11.50;;;28.10;76.40;;;;;;7383537;19;20014;-79
2023/06/12 11:43:02;;;;;;;16.45;11.50;;;28.00;76.00;;;;;;7385022;19;20006;-81
2023/06/12 11:45:34;;;;;;;21.85;11.77;;;28.10;76.20;;;;;;7390418;19;20003;-80
2023/06/12 11:48:14;;;;;;;19.55;12.63;;;28.20;74.90;;;;;;7404499;19;20034;-78
2023/06/12 11:50:44;;;;;;;20.63;12.15;;;28.10;75.50;;;;;;7414742;19;20032;-80
2023/06/12 11:53:13;;;;;;;17.17;12.77;;;28.20;75.70;;;;;;7383959;19;20019;-74
2023/06/12 11:55:44;;;;;;;20.02;13.65;;;28.20;75.80;;;;;;7382816;19;20019;-76
2023/06/12 11:58:13;;;;;;;21.90;12.70;;;28.20;74.50;;;;;;7381887;19;20388;-76
2023/06/12 12:00:41;;;;;;;19.65;12.20;;;28.30;74.70;;;;;;7381313;19;20014;-75
2023/06/12 12:03:16;;;;;;;26.08;12.38;;;28.30;74.60;;;;;;7381243;19;20013;-76
2023/06/12 12:05:45;;;;;;;21.40;12.70;;;28.30;75.00;;;;;;7403210;19;20007;-75
2023/06/12 12:08:18;;;;;;;22.33;12.52;;;28.30;74.30;;;;;;7389306;19;20062;-78
2023/06/12 12:10:47;;;;;;;19.55;11.77;;;28.30;74.40;;;;;;7410345;19;20007;-74
2023/06/12 12:13:16;;;;;;;19.77;13.48;;;28.30;74.60;;;;;;7406164;19;20015;-77
2023/06/12 12:15:45;;;;;;;22.25;12.00;;;28.30;74.40;;;;;;7413803;19;20024;-76
2023/06/12 12:18:19;;;;;;;26.35;14.05;;;28.30;74.40;;;;;;7409197;19;20346;-78
2023/06/12 12:20:54;;;;;;;24.67;12.77;;;28.20;74.20;;;;;;7412274;19;20026;-81
2023/06/12 12:23:27;;;;;;;28.02;13.75;;;28.30;74.40;;;;;;7413555;19;20032;-76
2023/06/12 12:25:55;;;;;;;20.30;12.52;;;28.30;74.20;;;;;;7414035;19;20026;-76
2023/06/12 12:28:24;;;;;;;18.52;11.75;;;28.30;74.60;;;;;;7414825;19;20232;-76
2023/06/12 12:30:53;;;;;;;24.80;14.73;;;28.30;75.00;;;;;;7410716;19;20013;-76
2023/06/12 12:33:24;;;;;;;26.58;15.45;;;28.20;74.10;;;;;;7409172;19;20366;-76
2023/06/12 12:35:53;;;;;;;27.85;13.60;;;28.20;74.20;;;;;;7412627;19;20027;-75
2023/06/12 12:38:22;;;;;;;22.90;14.25;;;28.10;74.40;;;;;;7407908;19;20026;-75
2023/06/12 12:40:50;;;;;;;25.13;13.55;;;28.00;74.70;;;;;;7412554;19;20018;-76
2023/06/12 12:43:19;;;;;;;27.60;15.55;;;28.00;75.10;;;;;;7408124;19;20007;-75
2023/06/12 12:45:48;;;;;;;24.02;13.80;;;28.00;75.00;;;;;;7411523;19;20006;-76
2023/06/12 12:48:17;;;;;;;20.40;13.57;;;27.90;75.40;;;;;;7407283;19;20020;-76
2023/06/12 12:50:52;;;;;;;24.27;14.52;;;28.00;76.00;;;;;;7407372;19;20283;-78
2023/06/12 12:53:21;;;;;;;19.83;12.98;;;27.90;75.90;;;;;;7407126;19;20014;-76
2023/06/12 12:55:50;;;;;;;20.30;12.00;;;28.00;76.30;;;;;;7414113;19;20341;-76
2023/06/12 12:58:19;;;;;;;25.50;13.90;;;28.10;76.50;;;;;;7407451;19;20268;-77